createdAt,value
2022-10-05T00:01:34.737Z,11.00
2022-10-05T00:04:18.700Z,13.63
2022-10-05T00:06:51.341Z,8.63
2022-10-05T00:09:21.371Z,8.90
2022-10-05T00:11:50.028Z,10.00
2022-10-05T00:14:36.799Z,12.83
2022-10-05T00:17:05.388Z,9.50
2022-10-05T00:19:38.483Z,12.33
2022-10-05T00:22:16.940Z,10.90
2022-10-05T00:24:45.924Z,9.73
2022-10-05T00:27:27.767Z,10.10
2022-10-05T00:30:01.276Z,8.77
2022-10-05T00:32:28.585Z,6.90
2022-10-05T00:34:57.788Z,8.83
2022-10-05T00:37:24.777Z,6.47
2022-10-05T00:39:51.703Z,5.97
2022-10-05T00:42:49.380Z,8.73
2022-10-05T00:45:27.563Z,6.00
2022-10-05T00:48:06.413Z,6.00
2022-10-05T00:51:03.293Z,9.13
2022-10-05T00:53:54.675Z,6.27
2022-10-05T00:57:03.118Z,11.53
2022-10-05T00:59:58.659Z,6.37
2022-10-05T01:02:50.150Z,6.37
2022-10-05T01:05:43.610Z,7.20
2022-10-05T01:09:10.555Z,8.70
2022-10-05T01:12:25.556Z,8.00
2022-10-05T01:15:13.535Z,10.43
2022-10-05T01:17:55.369Z,6.67
2022-10-05T01:21:21.778Z,11.50
2022-10-05T01:24:18.178Z,8.20
2022-10-05T01:27:28.280Z,10.30
2022-10-05T01:30:04.697Z,8.33
2022-10-05T01:32:48.540Z,7.47
2022-10-05T01:35:26.225Z,7.27
2022-10-05T01:38:43.239Z,9.90
2022-10-05T01:41:31.744Z,6.43
2022-10-05T01:44:14.682Z,6.83
2022-10-05T01:47:15.480Z,9.40
2022-10-05T01:50:07.042Z,7.37
2022-10-05T01:53:19.863Z,8.27
2022-10-05T01:56:06.210Z,7.53
2022-10-05T01:58:42.646Z,11.23
2022-10-05T02:01:39.582Z,10.20
2022-10-05T02:05:03.925Z,8.80
2022-10-05T02:08:15.040Z,6.83
2022-10-05T02:11:02.303Z,9.43
2022-10-05T02:14:01.248Z,9.13
2022-10-05T02:16:34.172Z,12.13
2022-10-05T02:19:27.641Z,7.20
2022-10-05T02:22:37.327Z,8.60
2022-10-05T02:25:15.464Z,11.57
2022-10-05T02:27:58.419Z,10.70
2022-10-05T02:30:25.432Z,6.97
2022-10-05T02:33:05.715Z,8.80
2022-10-05T02:35:32.898Z,8.43
2022-10-05T02:38:34.216Z,9.13
2022-10-05T02:41:33.317Z,12.13
2022-10-05T02:44:26.732Z,42.60
2022-10-05T02:47:28.312Z,12.03
2022-10-05T02:50:24.394Z,31.30
2022-10-05T02:52:57.950Z,58.87
2022-10-05T02:55:35.537Z,57.37
2022-10-05T02:58:20.003Z,16.73
2022-10-05T03:01:03.024Z,31.67
2022-10-05T03:03:59.317Z,15.10
2022-10-05T03:06:33.048Z,15.37
2022-10-05T03:09:09.217Z,11.73
2022-10-05T03:12:04.009Z,18.00
2022-10-05T03:14:46.673Z,12.90
2022-10-05T03:17:25.628Z,15.63
2022-10-05T03:20:20.236Z,12.90
2022-10-05T03:23:04.698Z,9.60
2022-10-05T03:25:51.040Z,10.30
2022-10-05T03:28:26.173Z,12.80
2022-10-05T03:31:09.712Z,9.93
2022-10-05T03:33:55.975Z,10.93
2022-10-05T03:36:58.762Z,11.90
2022-10-05T03:39:38.953Z,9.30
2022-10-05T03:42:57.274Z,8.10
2022-10-05T03:45:48.035Z,8.60
2022-10-05T03:48:28.875Z,7.67
2022-10-05T03:51:40.693Z,9.80
2022-10-05T03:54:19.955Z,9.77
2022-10-05T03:57:00.795Z,9.60
2022-10-05T03:59:33.898Z,9.07
2022-10-05T04:02:06.335Z,13.43
2022-10-05T04:05:18.494Z,11.20
2022-10-05T04:08:02.733Z,13.33
2022-10-05T04:10:44.286Z,26.10
2022-10-05T04:13:39.915Z,12.70
2022-10-05T04:16:30.914Z,12.93
2022-10-05T04:19:38.534Z,9.43
2022-10-05T04:22:23.648Z,10.70
2022-10-05T04:25:18.255Z,13.33
2022-10-05T04:28:31.198Z,17.60
2022-10-05T04:31:03.362Z,16.23
2022-10-05T04:33:32.450Z,16.80
2022-10-05T04:36:15.202Z,20.10
2022-10-05T04:39:12.965Z,11.83
2022-10-05T04:42:24.380Z,15.10
2022-10-05T04:44:58.964Z,11.63
2022-10-05T04:47:47.882Z,9.20
2022-10-05T04:50:57.478Z,19.97
2022-10-05T04:53:40.632Z,7.73
2022-10-05T04:56:14.440Z,7.33
2022-10-05T04:59:05.187Z,8.23
2022-10-05T05:01:50.838Z,9.17
2022-10-05T05:04:28.488Z,8.03
2022-10-05T05:07:16.947Z,8.50
2022-10-05T05:10:59.597Z,7.27
2022-10-05T05:14:19.927Z,7.80
2022-10-05T05:17:13.408Z,7.57
2022-10-05T05:20:02.090Z,8.50
2022-10-05T05:23:36.323Z,9.23
2022-10-05T05:26:26.211Z,12.10
2022-10-05T05:29:06.882Z,10.80
2022-10-05T05:31:58.972Z,9.50
2022-10-05T05:34:46.879Z,9.70
2022-10-05T05:37:34.894Z,9.70
2022-10-05T05:40:20.318Z,11.83
2022-10-05T05:43:27.851Z,10.20
2022-10-05T05:46:02.492Z,10.03
2022-10-05T05:48:35.282Z,10.67
2022-10-05T05:51:34.340Z,9.83
2022-10-05T05:54:16.266Z,12.10
2022-10-05T05:56:58.141Z,8.07
2022-10-05T06:00:00.521Z,8.77
2022-10-05T06:02:49.682Z,8.67
2022-10-05T06:05:29.125Z,8.10
2022-10-05T06:08:00.539Z,7.30
2022-10-05T06:10:41.464Z,8.03
2022-10-05T06:13:28.198Z,8.63
2022-10-05T06:16:23.304Z,8.17
2022-10-05T06:19:06.067Z,9.10
2022-10-05T06:22:02.335Z,9.50
2022-10-05T06:25:00.168Z,10.60
2022-10-05T06:27:55.883Z,20.20
2022-10-05T06:30:23.515Z,54.50
2022-10-05T06:32:50.321Z,59.37
2022-10-05T06:35:38.847Z,75.03
2022-10-05T06:38:28.875Z,39.27
2022-10-05T06:41:38.797Z,53.30
2022-10-05T06:44:40.415Z,35.27
2022-10-05T06:47:41.749Z,37.63
2022-10-05T06:50:27.531Z,17.87
2022-10-05T06:53:24.944Z,24.30
2022-10-05T06:56:07.863Z,18.03
2022-10-05T06:59:18.616Z,27.00
2022-10-05T07:02:19.724Z,17.20
2022-10-05T07:05:21.636Z,16.77
2022-10-05T07:07:58.398Z,17.73
2022-10-05T07:11:03.487Z,16.37
2022-10-05T07:13:54.621Z,14.17
2022-10-05T07:16:58.448Z,15.40
2022-10-05T07:19:54.812Z,15.87
2022-10-05T07:22:59.924Z,21.67
2022-10-05T07:25:41.043Z,18.97
2022-10-05T07:28:29.270Z,21.47
2022-10-05T07:31:00.896Z,16.73
2022-10-05T07:33:44.579Z,19.73
2022-10-05T07:36:43.561Z,15.33
2022-10-05T07:39:14.791Z,16.70
2022-10-05T07:41:54.170Z,17.23
2022-10-05T07:44:43.870Z,17.53
2022-10-05T07:47:38.023Z,18.13
2022-10-05T07:50:21.004Z,18.60
2022-10-05T07:53:28.738Z,16.97
2022-10-05T07:56:03.075Z,20.43
2022-10-05T07:58:44.452Z,16.43
2022-10-05T08:01:25.064Z,19.40
2022-10-05T08:04:03.445Z,17.73
2022-10-05T08:06:51.394Z,15.13
2022-10-05T08:09:55.163Z,18.40
2022-10-05T08:12:43.674Z,14.53
2022-10-05T08:15:22.707Z,17.13
2022-10-05T08:18:05.846Z,19.90
2022-10-05T08:20:48.737Z,17.57
2022-10-05T08:23:31.174Z,16.23
2022-10-05T08:26:29.298Z,14.90
2022-10-05T08:29:20.691Z,15.73
2022-10-05T08:31:53.188Z,16.17
2022-10-05T08:34:31.036Z,12.57
2022-10-05T08:37:22.377Z,11.17
2022-10-05T08:40:21.432Z,13.37
2022-10-05T08:43:03.059Z,10.60
2022-10-05T08:45:39.498Z,10.27
2022-10-05T08:48:18.811Z,16.80
2022-10-05T08:51:22.243Z,18.90
2022-10-05T08:54:52.389Z,10.10
2022-10-05T08:58:37.927Z,15.23
2022-10-05T09:01:04.820Z,10.37
2022-10-05T09:03:43.524Z,10.40
2022-10-05T09:06:58.572Z,7.97
2022-10-05T09:10:01.528Z,8.27
2022-10-05T09:12:50.224Z,7.97
2022-10-05T09:16:03.329Z,16.83
2022-10-05T09:18:39.119Z,9.53
2022-10-05T09:21:51.850Z,9.07
2022-10-05T09:24:48.697Z,6.00
2022-10-05T09:27:25.175Z,9.53
2022-10-05T09:30:06.456Z,5.43
2022-10-05T09:32:44.294Z,6.70
2022-10-05T09:35:46.003Z,5.47
2022-10-05T09:38:59.933Z,4.73
2022-10-05T09:42:03.889Z,5.03
2022-10-05T09:45:21.206Z,5.27
2022-10-05T09:48:00.665Z,5.47
2022-10-05T09:50:54.084Z,6.57
2022-10-05T09:53:34.371Z,7.70
2022-10-05T09:56:30.456Z,4.40
2022-10-05T09:59:27.410Z,5.10
2022-10-05T10:02:14.457Z,5.10
2022-10-05T10:05:16.099Z,3.67
2022-10-05T10:08:14.076Z,4.10
2022-10-05T10:11:15.814Z,7.00
2022-10-05T10:13:57.914Z,5.00
2022-10-05T10:16:55.473Z,3.70
2022-10-05T10:19:53.360Z,5.10
2022-10-05T10:22:44.819Z,3.50
2022-10-05T10:25:26.569Z,4.97
2022-10-05T10:28:13.206Z,7.90
2022-10-05T10:30:40.121Z,4.60
2022-10-05T10:33:37.296Z,5.20
2022-10-05T10:36:32.565Z,7.87
2022-10-05T10:39:55.957Z,8.67
2022-10-05T10:42:47.737Z,3.13
2022-10-05T10:45:17.616Z,4.20
2022-10-05T10:48:00.514Z,3.00
2022-10-05T10:51:06.787Z,6.97
2022-10-05T10:54:20.685Z,3.47
2022-10-05T10:57:10.012Z,4.10
2022-10-05T11:00:22.310Z,4.47
2022-10-05T11:03:26.075Z,5.40
2022-10-05T11:06:32.838Z,3.07
2022-10-05T11:09:35.086Z,4.10
2022-10-05T11:12:22.000Z,3.63
2022-10-05T11:15:13.319Z,3.40
2022-10-05T11:18:21.888Z,3.20
2022-10-05T11:21:06.843Z,7.50
2022-10-05T11:23:42.618Z,3.03
2022-10-05T11:26:21.234Z,3.70
2022-10-05T11:29:54.032Z,2.60
2022-10-05T11:32:50.344Z,3.70
2022-10-05T11:35:36.415Z,5.80
2022-10-05T11:38:37.022Z,3.07
2022-10-05T11:41:25.955Z,3.73
2022-10-05T11:44:30.371Z,6.80
2022-10-05T11:47:15.350Z,3.70
2022-10-05T11:50:05.665Z,4.23
2022-10-05T11:53:01.541Z,4.03
2022-10-05T11:55:45.463Z,2.67
2022-10-05T11:58:48.253Z,2.27
2022-10-05T12:01:45.751Z,3.60
2022-10-05T12:04:47.219Z,4.20
2022-10-05T12:07:33.797Z,4.20
2022-10-05T12:10:27.673Z,3.50
2022-10-05T12:13:42.892Z,4.13
2022-10-05T12:16:51.331Z,2.30
2022-10-05T12:19:29.634Z,3.30
2022-10-05T12:22:32.708Z,4.87
2022-10-05T12:25:27.811Z,2.47
2022-10-05T12:28:04.805Z,6.10
2022-10-05T12:30:54.748Z,2.70
2022-10-05T12:34:04.929Z,8.47
2022-10-05T12:37:04.116Z,5.77
2022-10-05T12:39:49.639Z,2.30
2022-10-05T12:42:39.386Z,3.93
2022-10-05T12:45:46.269Z,3.47
2022-10-05T12:48:29.027Z,4.90
2022-10-05T12:51:19.084Z,3.87
2022-10-05T12:54:00.287Z,3.00
2022-10-05T12:57:01.411Z,3.30
2022-10-05T12:59:35.922Z,3.37
2022-10-05T13:02:39.299Z,2.70
2022-10-05T13:05:09.394Z,3.70
2022-10-05T13:07:48.173Z,2.30
2022-10-05T13:10:47.177Z,2.80
2022-10-05T13:13:36.043Z,3.27
2022-10-05T13:16:25.568Z,3.23
2022-10-05T13:19:21.708Z,5.77
2022-10-05T13:22:28.915Z,2.93
2022-10-05T13:25:14.196Z,8.17
2022-10-05T13:27:54.397Z,6.00
2022-10-05T13:30:22.135Z,2.40
2022-10-05T13:33:18.073Z,2.40
2022-10-05T13:35:51.006Z,4.47
2022-10-05T13:38:54.595Z,7.37
2022-10-05T13:42:00.520Z,2.53
2022-10-05T13:44:54.385Z,3.50
2022-10-05T13:47:46.529Z,3.67
2022-10-05T13:50:31.207Z,3.93
2022-10-05T13:53:25.725Z,2.90
2022-10-05T13:56:01.052Z,2.63
2022-10-05T13:58:42.954Z,2.40
2022-10-05T14:01:32.259Z,14.57
2022-10-05T14:04:16.032Z,6.03
2022-10-05T14:06:44.469Z,3.57
2022-10-05T14:09:27.923Z,3.37
2022-10-05T14:12:04.075Z,4.43
2022-10-05T14:14:54.590Z,7.00
2022-10-05T14:17:33.780Z,5.33
2022-10-05T14:20:13.678Z,4.33
2022-10-05T14:22:50.019Z,2.67
2022-10-05T14:25:19.267Z,3.33
2022-10-05T14:28:01.992Z,3.33
2022-10-05T14:30:32.122Z,4.00
2022-10-05T14:33:04.770Z,2.43
2022-10-05T14:35:49.779Z,4.00
2022-10-05T14:38:29.750Z,1.87
2022-10-05T14:41:17.920Z,2.73
2022-10-05T14:44:09.455Z,4.57
2022-10-05T14:46:39.380Z,5.20
2022-10-05T14:49:21.125Z,3.37
2022-10-05T14:51:53.314Z,3.90
2022-10-05T14:55:04.413Z,4.43
2022-10-05T14:57:56.337Z,1.77
2022-10-05T15:00:24.391Z,7.80
2022-10-05T15:03:03.584Z,4.73
2022-10-05T15:05:55.170Z,7.07
2022-10-05T15:08:55.211Z,4.63
2022-10-05T15:11:44.849Z,4.17
2022-10-05T15:14:27.539Z,3.60
2022-10-05T15:16:59.617Z,5.10
2022-10-05T15:20:24.567Z,5.93
2022-10-05T15:23:26.449Z,5.00
2022-10-05T15:26:17.406Z,2.70
2022-10-05T15:28:57.375Z,3.00
2022-10-05T15:31:51.324Z,5.00
2022-10-05T15:34:45.182Z,4.00
2022-10-05T15:37:43.101Z,8.10
2022-10-05T15:40:46.690Z,2.30
2022-10-05T15:43:19.691Z,4.23
2022-10-05T15:45:56.530Z,5.00
2022-10-05T15:49:10.724Z,3.13
2022-10-05T15:51:50.939Z,4.23
2022-10-05T15:54:41.886Z,3.43
2022-10-05T15:57:17.458Z,3.63
2022-10-05T15:59:56.293Z,8.17
2022-10-05T16:02:33.403Z,5.10
2022-10-05T16:05:44.532Z,2.20
2022-10-05T16:08:51.336Z,2.10
2022-10-05T16:11:32.233Z,4.87
2022-10-05T16:14:24.102Z,3.80
2022-10-05T16:17:15.207Z,4.30
2022-10-05T16:20:17.294Z,3.87
2022-10-05T16:23:28.510Z,3.20
2022-10-05T16:26:14.652Z,3.17
2022-10-05T16:29:25.039Z,2.70
2022-10-05T16:32:07.286Z,3.47
2022-10-05T16:35:17.518Z,3.23
2022-10-05T16:38:34.535Z,2.90
2022-10-05T16:41:42.594Z,3.83
2022-10-05T16:44:45.799Z,11.50
2022-10-05T16:47:29.076Z,4.33
2022-10-05T16:50:15.859Z,2.23
2022-10-05T16:52:49.719Z,5.80
2022-10-05T16:55:31.616Z,7.20
2022-10-05T16:58:02.210Z,3.33
2022-10-05T17:01:00.722Z,3.90
2022-10-05T17:04:06.898Z,3.40
2022-10-05T17:07:08.716Z,2.93
2022-10-05T17:10:08.991Z,4.63
2022-10-05T17:12:48.256Z,4.03
2022-10-05T17:15:30.261Z,7.80
2022-10-05T17:18:23.839Z,19.73
2022-10-05T17:21:07.979Z,3.40
2022-10-05T17:24:08.708Z,3.80
2022-10-05T17:27:02.431Z,2.03
2022-10-05T17:29:52.644Z,2.80
2022-10-05T17:32:19.427Z,2.57
2022-10-05T17:35:01.689Z,2.70
2022-10-05T17:37:39.746Z,2.40
2022-10-05T17:40:38.895Z,2.87
2022-10-05T17:43:28.780Z,1.93
2022-10-05T17:45:57.536Z,2.70
2022-10-05T17:49:06.607Z,2.97
2022-10-05T17:51:51.836Z,2.60
2022-10-05T17:54:49.000Z,3.00
2022-10-05T17:57:27.898Z,3.63
2022-10-05T17:59:58.957Z,2.10
2022-10-05T18:02:36.908Z,4.83
2022-10-05T18:05:04.474Z,4.83
2022-10-05T18:07:36.924Z,2.50
2022-10-05T18:10:09.962Z,3.30
2022-10-05T18:12:36.832Z,3.40
2022-10-05T18:15:41.136Z,5.70
2022-10-05T18:18:32.821Z,2.53
2022-10-05T18:21:14.868Z,3.13
2022-10-05T18:24:01.464Z,1.60
2022-10-05T18:26:57.282Z,2.10
2022-10-05T18:30:03.698Z,4.10
2022-10-05T18:33:07.590Z,1.93
2022-10-05T18:35:58.027Z,1.50
2022-10-05T18:39:05.249Z,1.83
2022-10-05T18:42:30.710Z,2.00
2022-10-05T18:45:21.908Z,3.37
2022-10-05T18:49:03.576Z,2.33
2022-10-05T18:51:51.978Z,3.27
2022-10-05T18:54:37.150Z,3.10
2022-10-05T18:57:37.207Z,1.90
2022-10-05T19:00:22.989Z,1.50
2022-10-05T19:02:57.156Z,1.73
2022-10-05T19:05:48.723Z,3.53
2022-10-05T19:08:44.547Z,2.50
2022-10-05T19:11:29.874Z,2.23
2022-10-05T19:14:05.955Z,1.60
2022-10-05T19:17:21.113Z,5.93
2022-10-05T19:20:26.532Z,2.70
2022-10-05T19:23:26.281Z,1.37
2022-10-05T19:26:14.464Z,3.20
2022-10-05T19:29:02.319Z,3.63
2022-10-05T19:31:48.253Z,1.97
2022-10-05T19:35:19.289Z,5.80
2022-10-05T19:38:24.107Z,3.50
2022-10-05T19:41:14.910Z,2.50
2022-10-05T19:43:45.609Z,3.20
2022-10-05T19:47:01.001Z,3.13
2022-10-05T19:49:44.481Z,2.23
2022-10-05T19:52:21.049Z,2.40
2022-10-05T19:55:02.367Z,2.77
2022-10-05T19:57:30.318Z,7.03
2022-10-05T19:59:59.545Z,3.80
2022-10-05T20:02:27.921Z,3.80
2022-10-05T20:05:07.347Z,3.90
2022-10-05T20:07:34.444Z,4.50
2022-10-05T20:10:28.293Z,2.80
2022-10-05T20:12:59.610Z,3.93
2022-10-05T20:15:53.955Z,11.80
2022-10-05T20:19:06.703Z,4.67
2022-10-05T20:21:41.639Z,6.43
2022-10-05T20:24:11.372Z,14.03
2022-10-05T20:27:05.615Z,4.70
2022-10-05T20:29:44.505Z,9.00
2022-10-05T20:32:18.031Z,6.03
2022-10-05T20:34:47.296Z,2.10
2022-10-05T20:37:17.529Z,5.23
2022-10-05T20:39:44.976Z,3.70
2022-10-05T20:42:12.066Z,3.47
2022-10-05T20:44:40.127Z,3.33
2022-10-05T20:47:09.619Z,5.37
2022-10-05T20:49:40.989Z,4.23
2022-10-05T20:52:10.828Z,2.97
2022-10-05T20:54:39.385Z,3.63
2022-10-05T20:57:06.927Z,4.57
2022-10-05T20:59:35.446Z,4.10
2022-10-05T21:02:03.957Z,6.33
2022-10-05T21:04:40.254Z,2.93
2022-10-05T21:07:08.192Z,5.30
2022-10-05T21:09:37.933Z,5.20
2022-10-05T21:12:05.018Z,8.83
2022-10-05T21:14:34.412Z,5.30
2022-10-05T21:17:02.069Z,6.53
2022-10-05T21:19:29.796Z,5.57
2022-10-05T21:22:02.411Z,3.80
2022-10-05T21:24:29.320Z,4.40
2022-10-05T21:26:57.521Z,3.90
2022-10-05T21:29:24.631Z,2.03
2022-10-05T21:31:51.652Z,4.70
2022-10-05T21:34:18.835Z,1.90
2022-10-05T21:36:45.814Z,4.20
2022-10-05T21:39:12.740Z,1.83
2022-10-05T21:41:39.771Z,3.03
2022-10-05T21:44:07.016Z,3.67
2022-10-05T21:46:36.700Z,2.73
2022-10-05T21:49:05.932Z,4.13
2022-10-05T21:51:35.482Z,5.30
2022-10-05T21:54:15.869Z,2.60
2022-10-05T21:56:51.066Z,2.50
2022-10-05T21:59:21.507Z,7.80
2022-10-05T22:01:48.436Z,3.07
2022-10-05T22:04:15.408Z,4.70
2022-10-05T22:06:42.427Z,2.40
2022-10-05T22:09:09.959Z,2.30
2022-10-05T22:11:37.001Z,4.27
2022-10-05T22:14:04.062Z,3.30
2022-10-05T22:16:34.773Z,7.20
2022-10-05T22:19:10.316Z,2.67
2022-10-05T22:21:41.486Z,2.93
2022-10-05T22:24:11.270Z,3.33
2022-10-05T22:26:39.768Z,2.87
2022-10-05T22:29:07.220Z,6.07
2022-10-05T22:31:34.734Z,3.23
2022-10-05T22:34:01.783Z,2.70
2022-10-05T22:36:29.027Z,4.57
2022-10-05T22:38:56.125Z,4.03
2022-10-05T22:41:24.094Z,2.93
2022-10-05T22:43:52.010Z,3.77
2022-10-05T22:46:19.865Z,3.40
2022-10-05T22:48:46.821Z,4.33
2022-10-05T22:51:13.691Z,6.37
2022-10-05T22:53:40.714Z,9.23
2022-10-05T22:56:11.151Z,6.00
2022-10-05T22:58:38.287Z,5.10
2022-10-05T23:01:11.984Z,3.63
2022-10-05T23:03:39.183Z,3.97
2022-10-05T23:06:19.048Z,7.80
2022-10-05T23:08:46.859Z,3.00
2022-10-05T23:11:22.596Z,3.60
2022-10-05T23:13:59.883Z,4.10
2022-10-05T23:16:29.624Z,10.27
2022-10-05T23:18:57.296Z,4.33
2022-10-05T23:21:28.212Z,6.73
2022-10-05T23:23:55.634Z,6.00
2022-10-05T23:26:25.568Z,7.27
2022-10-05T23:28:52.985Z,5.40
2022-10-05T23:31:23.993Z,7.27
2022-10-05T23:33:52.692Z,9.70
2022-10-05T23:36:23.411Z,3.20
2022-10-05T23:38:50.836Z,12.20
2022-10-05T23:41:19.652Z,6.00
2022-10-05T23:43:48.108Z,5.73
2022-10-05T23:46:15.971Z,4.40
2022-10-05T23:48:43.024Z,9.07
2022-10-05T23:51:13.080Z,3.67
2022-10-05T23:53:40.324Z,4.10
2022-10-05T23:56:07.576Z,3.40
2022-10-05T23:58:37.503Z,4.00
